»·PEaware :: N62KM KPHX-KIYK

N62KM :: KPHX-KIYK

FLIGHT INFORMATION

Flight Status: Arrived
Operator: Privately registered:
United States
More flights under this callsign
Pilot: Shane P. (16837)
Aircraft: PILATUS PC-12 EAGLE
(PC12)
More flights by this aircraft type
Origin: KPHX Phoenix Sky Harbor Intl
United States
Destination: KIYK Inyokern
United States
More flights between these airports :: More routes between these airports
Route: VFR
File this flight plan on PilotEdge
Remarks:
Altitude:
(Current/Filed)
16,500ft
Speed:
(Current/Filed)
250kts
Departed: 08-Oct-17 04:15 AM
Arrived: 08-Oct-17 05:39 AM
Distance/Time
Traveled:
317nm/1:23
Distance/Time
To Go:
Arrived

Flight Plot

Page will automatically refresh every two minutes.

Flight plan parsing failed; only flown route is shown


Map Options




Map Legend


Flown Route
Filed Route
Departure Airport
Arrival Airport
Navaid (VOR, NDB)
Fix

Horizontal Profiles

Position Reports

Time Latitude Longitude Heading Altitude Ground
Speed
08-Oct-17 04:05 33.425944 -112.021644 265 1140ft 0kts
08-Oct-17 04:06 33.425944 -112.021644 265 1140ft 0kts
08-Oct-17 04:07 33.425944 -112.021644 265 1140ft 0kts
08-Oct-17 04:08 33.425944 -112.021644 265 1140ft 0kts
08-Oct-17 04:09 33.425944 -112.021644 265 1140ft 0kts
08-Oct-17 04:11 33.425944 -112.021644 265 1140ft 0kts
08-Oct-17 04:11 33.425944 -112.021648 265 1140ft 0kts
08-Oct-17 04:13 33.425944 -112.021651 265 1140ft 0kts
08-Oct-17 04:14 33.425944 -112.021652 265 1140ft 0kts
08-Oct-17 04:15 33.426688 -112.021222 16 1140ft 9kts
08-Oct-17 04:16 33.427744 -112.022595 274 1140ft 7kts
08-Oct-17 04:17 33.427754 -112.026563 278 1140ft 5kts
08-Oct-17 04:20 33.423238 -111.929470 88 3740ft 171kts
08-Oct-17 04:20 33.441248 -111.892410 15 4997ft 178kts
08-Oct-17 04:21 33.480978 -111.908750 278 6471ft 177kts
08-Oct-17 04:23 33.491765 -111.976835 287 8244ft 181kts
08-Oct-17 04:23 33.507821 -112.023757 292 9508ft 183kts
08-Oct-17 04:24 33.531942 -112.085267 293 10118ft 213kts
08-Oct-17 04:25 33.557580 -112.149053 294 11083ft 212kts
08-Oct-17 04:26 33.583218 -112.212860 294 12024ft 211kts
08-Oct-17 04:27 33.608832 -112.276619 294 12889ft 213kts
08-Oct-17 04:28 33.634439 -112.340553 293 13762ft 212kts
08-Oct-17 04:29 33.660135 -112.404842 293 14534ft 214kts
08-Oct-17 04:30 33.690975 -112.466074 317 15262ft 221kts
08-Oct-17 04:31 33.718861 -112.529439 288 15950ft 218kts
08-Oct-17 04:32 33.742599 -112.597578 292 16505ft 226kts
08-Oct-17 04:33 33.769982 -112.668813 293 16507ft 241kts
08-Oct-17 04:34 33.798988 -112.742702 293 16520ft 245kts
08-Oct-17 04:35 33.828279 -112.817151 293 16523ft 247kts
08-Oct-17 04:36 33.857666 -112.891941 293 16526ft 248kts
08-Oct-17 04:37 33.887167 -112.967179 293 16529ft 248kts
08-Oct-17 04:38 33.916548 -113.042281 293 16531ft 248kts
08-Oct-17 04:39 33.945979 -113.117678 293 16531ft 249kts
08-Oct-17 04:40 33.975489 -113.193436 293 16530ft 249kts
08-Oct-17 04:41 34.004890 -113.269095 292 16527ft 249kts
08-Oct-17 04:42 34.034353 -113.345083 292 16523ft 249kts
08-Oct-17 04:43 34.063721 -113.420998 292 16498ft 250kts
08-Oct-17 04:44 34.093081 -113.497068 292 16491ft 250kts
08-Oct-17 04:45 34.122461 -113.573361 292 16483ft 250kts
08-Oct-17 04:46 34.151718 -113.649511 292 16476ft 250kts
08-Oct-17 04:47 34.180919 -113.725691 292 16468ft 250kts
08-Oct-17 04:48 34.210207 -113.802284 292 16460ft 251kts
08-Oct-17 04:49 34.239396 -113.878787 292 16453ft 251kts
08-Oct-17 04:50 34.268658 -113.955664 292 16445ft 251kts
08-Oct-17 04:51 34.297791 -114.032382 292 16441ft 251kts
08-Oct-17 04:52 34.326857 -114.109091 292 16438ft 251kts
08-Oct-17 04:53 34.355970 -114.186101 292 16435ft 251kts
08-Oct-17 04:54 34.384927 -114.262881 292 16433ft 251kts
08-Oct-17 04:55 34.413830 -114.339698 292 16430ft 251kts
08-Oct-17 04:56 34.442764 -114.416781 292 16427ft 251kts
08-Oct-17 04:57 34.471545 -114.493631 292 16427ft 250kts
08-Oct-17 04:58 34.500368 -114.570780 292 16427ft 250kts
08-Oct-17 04:59 34.529028 -114.647673 292 16426ft 250kts
08-Oct-17 05:00 34.557629 -114.724587 292 16427ft 250kts
08-Oct-17 05:01 34.586266 -114.801781 292 16431ft 250kts
08-Oct-17 05:02 34.614741 -114.878725 292 16433ft 250kts
08-Oct-17 05:03 34.643163 -114.955706 292 16436ft 250kts
08-Oct-17 05:04 34.671611 -115.032946 292 16439ft 250kts
08-Oct-17 05:05 34.699907 -115.109956 292 16443ft 250kts
08-Oct-17 05:06 34.728291 -115.187401 292 16446ft 250kts
08-Oct-17 05:07 34.756556 -115.264700 292 16456ft 250kts
08-Oct-17 05:08 34.784790 -115.342098 292 16461ft 250kts
08-Oct-17 05:09 34.813054 -115.419763 292 16468ft 250kts
08-Oct-17 05:10 34.841200 -115.497258 292 16474ft 250kts
08-Oct-17 05:11 34.869268 -115.574775 292 16480ft 250kts
08-Oct-17 05:12 34.897330 -115.652606 292 16486ft 250kts
08-Oct-17 05:13 34.925215 -115.729966 292 16493ft 249kts
08-Oct-17 05:14 34.953153 -115.807583 292 16512ft 249kts
08-Oct-17 05:15 34.980895 -115.884944 292 16516ft 249kts
08-Oct-17 05:16 35.008648 -115.962473 292 16516ft 249kts
08-Oct-17 05:17 35.036413 -116.040280 292 16516ft 249kts
08-Oct-17 05:18 35.064052 -116.117931 292 16496ft 249kts
08-Oct-17 05:19 35.091632 -116.195564 292 16503ft 249kts
08-Oct-17 05:20 35.119247 -116.273528 292 16499ft 249kts
08-Oct-17 05:21 35.146750 -116.351299 292 16498ft 249kts
08-Oct-17 05:22 35.174225 -116.429254 292 16499ft 249kts
08-Oct-17 05:23 35.201523 -116.506869 292 16500ft 248kts
08-Oct-17 05:24 35.229584 -116.586966 292 15686ft 262kts
08-Oct-17 05:25 35.257937 -116.668212 292 14683ft 254kts
08-Oct-17 05:26 35.285385 -116.746758 292 13682ft 249kts
08-Oct-17 05:27 35.312597 -116.824482 292 12682ft 248kts
08-Oct-17 05:28 35.339519 -116.901923 292 11684ft 246kts
08-Oct-17 05:29 35.366311 -116.979191 292 10681ft 245kts
08-Oct-17 05:30 35.393034 -117.056498 292 9679ft 246kts
08-Oct-17 05:31 35.419668 -117.133741 292 8681ft 246kts
08-Oct-17 05:32 35.446200 -117.210836 292 7683ft 245kts
08-Oct-17 05:33 35.472621 -117.287745 292 6683ft 243kts
08-Oct-17 05:34 35.498334 -117.362624 292 6207ft 233kts
08-Oct-17 05:35 35.523367 -117.435632 292 6203ft 229kts
08-Oct-17 05:36 35.547544 -117.506255 292 5619ft 210kts
08-Oct-17 05:37 35.569348 -117.569504 292 5180ft 198kts
08-Oct-17 05:38 35.590676 -117.632006 293 4863ft 201kts
08-Oct-17 05:39 35.612496 -117.698202 283 3928ft 209kts
08-Oct-17 05:40 35.613631 -117.757011 278 3641ft 146kts
08-Oct-17 05:41 35.620823 -117.798809 286 3220ft 101kts
08-Oct-17 05:42 35.634474 -117.823048 319 2733ft 79kts
08-Oct-17 05:43 35.653073 -117.830000 47 2462ft 11kts
08-Oct-17 05:44 35.652827 -117.828943 97 2462ft 8kts
08-Oct-17 05:45 35.651841 -117.827202 151 2462ft 3kts
08-Oct-17 05:46 35.651706 -117.827301 250 2462ft 0kts
08-Oct-17 05:47 35.651706 -117.827301 250 2462ft 0kts
08-Oct-17 05:48 35.651706 -117.827301 250 2462ft 0kts
08-Oct-17 05:49 35.651706 -117.827301 250 2462ft 0kts

Navigation Log

Ident Type
Flight plan parsing failed, navigation log unavailable